Aviation Digital Data Service (ADDS)

Output produced by METARs form (1814 UTC 24 June 2019)
found at http://www.aviationweather.gov/metar/data/
 
Forecast for: VEBI (SHILLONG , IN)
Text: TAF VEBI 240800Z 2409/2418 34006KT 5000 HZ FEW018 SCT100
Forecast period: 0900 to 1500 UTC 24 June 2019
Forecast type: FROM: standard forecast or significant change
Winds: from the NNW (340 degrees) at 7 MPH (6 knots; 3.1 m/s)
Visibility: 3 miles (5 km)
Ceiling: at least 12,000 feet AGL
Clouds: few clouds at 1800 feet AGL
scattered clouds at 10000 feet AGL
Weather: HZ  (haze)
Text: BECMG 2415/2418 00000KT 3000 BR
Forecast period: 1500 to 1800 UTC 24 June 2019
Forecast type: BECOMING: Conditions expected to become as follows by 1800 UTC 24 June 2019
Winds: calm
Visibility: 1.86 miles (2.99 km)
Ceiling: at least 12,000 feet AGL
Clouds: few clouds at 1800 feet AGL
scattered clouds at 10000 feet AGL
Weather: BR  (mist)